Time;durP1;ratioP1;P1;durP2;ratioP2;P2;SDS_P1;SDS_P2;PMS_P1;PMS_P2;Temp;Humidity;BMP_temperature;BMP_pressure;BME280_temperature;BME280_humidity;BME280_pressure;Samples;Min_cycle;Max_cycle;Signal;HPM_P1;HPM_P2
2022/04/07 00:01:52;;;;;;;0.40;0.40;;;;;;;10.24;65.72;98633.88;103401;1269;97234;-66
2022/04/07 00:04:21;;;;;;;0.40;0.40;;;;;;;10.24;65.66;98630.16;103537;1279;139386;-65
2022/04/07 00:06:49;;;;;;;0.40;0.30;;;;;;;10.24;65.49;98627.84;103398;1279;111012;-66
2022/04/07 00:09:17;;;;;;;0.40;0.30;;;;;;;10.21;65.70;98621.95;103433;1279;98551;-64
2022/04/07 00:11:45;;;;;;;0.40;0.40;;;;;;;10.22;65.65;98620.32;103212;1279;138562;-67
2022/04/07 00:14:13;;;;;;;0.40;0.40;;;;;;;10.17;65.83;98617.34;103921;1279;97186;-65
2022/04/07 00:16:41;;;;;;;0.40;0.40;;;;;;;10.18;65.94;98615.88;103290;1279;139924;-66
2022/04/07 00:19:09;;;;;;;0.40;0.40;;;;;;;10.25;65.54;98610.27;103550;1279;111224;-64
2022/04/07 00:21:40;;;;;;;0.40;0.40;;;;;;;10.23;65.59;98607.31;103375;1279;99471;-66
2022/04/07 00:24:09;;;;;;;0.40;0.40;;;;;;;10.20;65.60;98606.23;103215;1279;139277;-66
2022/04/07 00:26:37;;;;;;;0.40;0.40;;;;;;;10.18;65.58;98603.67;103383;1279;96700;-63
2022/04/07 00:29:05;;;;;;;0.40;0.40;;;;;;;10.18;65.48;98598.34;103217;1279;138852;-66
2022/04/07 00:31:39;;;;;;;0.50;0.40;;;;;;;10.16;65.45;98594.53;103361;1279;111071;-65
2022/04/07 00:34:10;;;;;;;0.40;0.30;;;;;;;10.17;65.48;98590.05;103352;1281;99405;-65
2022/04/07 00:36:39;;;;;;;0.40;0.30;;;;;;;10.18;65.49;98587.18;103348;1279;138586;-66
2022/04/07 00:39:07;;;;;;;0.40;0.30;;;;;;;10.22;65.36;98582.17;103308;1279;97375;-66
2022/04/07 00:41:37;;;;;;;0.40;0.30;;;;;;;10.28;65.27;98580.82;103185;1279;138992;-65
2022/04/07 00:44:08;;;;;;;0.50;0.50;;;;;;;10.29;65.01;98578.77;103391;1279;111038;-65
2022/04/07 00:46:38;;;;;;;0.40;0.40;;;;;;;10.27;64.98;98579.23;103307;1279;139597;-65
2022/04/07 00:49:07;;;;;;;0.40;0.40;;;;;;;10.27;65.07;98577.27;103341;1279;108879;-64
2022/04/07 00:51:38;;;;;;;0.40;0.30;;;;;;;10.29;64.92;98574.34;103420;1279;97139;-65
2022/04/07 00:54:07;;;;;;;0.40;0.30;;;;;;;10.31;65.00;98572.98;103314;1279;138337;-66
2022/04/07 00:56:36;;;;;;;0.40;0.30;;;;;;;10.33;64.81;98568.77;103486;1281;110019;-64
2022/04/07 00:59:07;;;;;;;0.40;0.40;;;;;;;10.33;64.74;98568.61;103261;1278;139826;-64
2022/04/07 01:01:35;;;;;;;0.50;0.40;;;;;;;10.32;64.63;98565.46;103378;1279;109413;-66
2022/04/07 01:04:04;;;;;;;0.40;0.30;;;;;;;10.31;64.88;98564.11;103402;1279;97840;-69
2022/04/07 01:06:32;;;;;;;0.40;0.40;;;;;;;10.31;64.83;98564.50;103292;1278;138624;-64
2022/04/07 01:09:00;;;;;;;0.40;0.30;;;;;;;10.31;64.83;98560.25;103253;1279;111026;-65
2022/04/07 01:11:29;;;;;;;0.40;0.40;;;;;;;10.37;64.86;98554.77;103242;1279;139568;-66
2022/04/07 01:13:57;;;;;;;0.40;0.30;;;;;;;10.44;64.67;98555.27;103183;1279;108543;-64
2022/04/07 01:16:27;;;;;;;0.40;0.30;;;;;;;10.45;64.54;98547.80;103220;1279;139140;-65
2022/04/07 01:18:59;;;;;;;0.40;0.40;;;;;;;10.48;64.51;98547.45;103479;1279;97175;-66
2022/04/07 01:21:28;;;;;;;0.40;0.30;;;;;;;10.50;64.52;98542.73;103490;1279;110117;-65
2022/04/07 01:24:02;;;;;;;0.40;0.30;;;;;;;10.51;64.46;98540.89;103319;1279;138807;-65
2022/04/07 01:26:41;;;;;;;0.40;0.30;;;;;;;10.55;64.46;98539.77;103484;1278;204621;-65
2022/04/07 01:29:14;;;;;;;0.40;0.40;;;;;;;10.51;64.39;98537.48;103516;1279;138646;-65
2022/04/07 01:31:42;;;;;;;0.40;0.40;;;;;;;10.52;64.35;98541.20;103463;1279;96858;-66
2022/04/07 01:34:16;;;;;;;0.40;0.30;;;;;;;10.49;64.33;98545.27;103378;1279;111318;-65
2022/04/07 01:36:45;;;;;;;0.40;0.40;;;;;;;10.47;64.45;98546.11;103124;1280;138939;-65
2022/04/07 01:39:14;;;;;;;0.40;0.40;;;;;;;10.43;64.67;98539.54;103521;1279;108544;-65
2022/04/07 01:41:45;;;;;;;0.40;0.40;;;;;;;10.42;64.76;98536.77;103386;1279;139193;-64
2022/04/07 01:44:15;;;;;;;0.40;0.30;;;;;;;10.43;64.77;98533.90;103428;1279;97987;-64
2022/04/07 01:46:43;;;;;;;0.40;0.30;;;;;;;10.40;64.74;98537.45;103234;1279;138857;-66
2022/04/07 01:49:11;;;;;;;0.40;0.40;;;;;;;10.37;64.96;98529.94;103735;1279;100011;-66
2022/04/07 01:51:39;;;;;;;0.40;0.40;;;;;;;10.36;65.01;98525.56;103493;1279;108846;-67
2022/04/07 01:54:11;;;;;;;0.40;0.30;;;;;;;10.34;65.07;98524.75;103394;1279;139222;-67
2022/04/07 01:56:41;;;;;;;0.40;0.30;;;;;;;10.34;65.07;98521.02;103501;1279;97121;-65
2022/04/07 01:59:10;;;;;;;0.50;0.50;;;;;;;10.31;65.12;98521.73;103158;1279;138415;-67
2022/04/07 02:01:38;;;;;;;0.40;0.30;;;;;;;10.29;65.39;98521.34;103462;1279;98503;-66
2022/04/07 02:04:06;;;;;;;0.40;0.40;;;;;;;10.29;65.39;98521.52;103425;1279;108836;-67
2022/04/07 02:06:34;;;;;;;0.40;0.40;;;;;;;10.33;65.46;98518.78;103344;1279;139876;-63
2022/04/07 02:09:02;;;;;;;0.40;0.30;;;;;;;10.39;65.22;98519.58;103478;1279;97891;-66
2022/04/07 02:11:32;;;;;;;0.40;0.40;;;;;;;10.37;65.20;98518.59;103447;1279;138217;-70
2022/04/07 02:14:00;;;;;;;0.40;0.30;;;;;;;10.36;65.13;98514.04;104065;1279;99649;-66
2022/04/07 02:16:30;;;;;;;0.40;0.30;;;;;;;10.40;65.18;98508.55;103425;1279;139241;-65
2022/04/07 02:18:58;;;;;;;0.40;0.30;;;;;;;10.39;65.12;98508.59;103467;1279;97088;-66
2022/04/07 02:21:26;;;;;;;0.40;0.30;;;;;;;10.38;65.25;98512.48;103309;1279;97130;-65
2022/04/07 02:23:54;;;;;;;0.40;0.40;;;;;;;10.37;65.21;98510.63;103225;1279;138645;-65
2022/04/07 02:26:21;;;;;;;0.40;0.30;;;;;;;10.36;65.24;98506.20;103326;1279;99462;-65
2022/04/07 02:28:49;;;;;;;0.40;0.30;;;;;;;10.40;65.29;98508.69;103295;1279;141777;-65
2022/04/07 02:31:17;;;;;;;0.40;0.30;;;;;;;10.40;65.21;98505.13;103383;1279;97991;-64
2022/04/07 02:33:46;;;;;;;0.40;0.30;;;;;;;10.35;65.43;98501.48;103441;1279;96688;-66
2022/04/07 02:36:17;;;;;;;0.40;0.40;;;;;;;10.40;65.33;98497.69;103238;1279;138724;-65
2022/04/07 02:38:45;;;;;;;0.40;0.30;;;;;;;10.42;65.45;98493.13;103521;1279;99859;-66
2022/04/07 02:41:13;;;;;;;0.40;0.30;;;;;;;10.49;65.33;98488.63;103291;1279;139405;-66
2022/04/07 02:43:41;;;;;;;0.40;0.30;;;;;;;10.57;65.08;98488.73;103485;1279;96613;-65
2022/04/07 02:46:10;;;;;;;0.40;0.30;;;;;;;10.54;64.89;98486.24;103410;1279;96611;-66
2022/04/07 02:48:39;;;;;;;0.40;0.30;;;;;;;10.53;65.02;98484.85;103368;1279;138850;-67
2022/04/07 02:51:06;;;;;;;0.40;0.30;;;;;;;10.56;64.95;98478.34;103329;1279;98514;-67
2022/04/07 02:53:34;;;;;;;0.40;0.30;;;;;;;10.61;64.90;98473.80;103266;1279;138345;-66
2022/04/07 02:56:02;;;;;;;0.40;0.30;;;;;;;10.67;64.82;98472.52;103364;1279;97040;-67
2022/04/07 02:58:30;;;;;;;0.40;0.40;;;;;;;10.81;64.55;98472.10;103307;1279;139261;-66
2022/04/07 03:00:58;;;;;;;0.40;0.30;;;;;;;10.89;64.26;98464.70;103482;1279;111206;-64
2022/04/07 03:03:26;;;;;;;0.50;0.40;;;;;;;10.88;64.18;98465.64;103578;1279;97701;-64
2022/04/07 03:05:54;;;;;;;0.40;0.30;;;;;;;10.82;64.07;98458.34;103329;1279;138394;-63
2022/04/07 03:08:22;;;;;;;0.40;0.30;;;;;;;10.78;64.26;98459.84;103337;1279;96558;-66
2022/04/07 03:10:50;;;;;;;0.40;0.30;;;;;;;10.84;64.21;98452.38;103292;1279;139712;-64
2022/04/07 03:13:18;;;;;;;0.40;0.40;;;;;;;10.94;63.80;98449.15;103434;1279;111062;-65
2022/04/07 03:15:46;;;;;;;0.40;0.40;;;;;;;10.96;63.78;98448.16;103423;1279;99364;-63
2022/04/07 03:18:14;;;;;;;0.40;0.30;;;;;;;10.98;63.56;98449.77;103705;1278;139186;-64
2022/04/07 03:20:42;;;;;;;0.40;0.40;;;;;;;11.07;63.39;98454.79;103402;1279;96711;-66
2022/04/07 03:23:10;;;;;;;0.40;0.30;;;;;;;11.09;63.44;98456.64;103347;1279;139203;-64
2022/04/07 03:25:38;;;;;;;0.40;0.30;;;;;;;11.05;63.37;98459.33;103358;1279;110920;-65
2022/04/07 03:28:06;;;;;;;0.40;0.30;;;;;;;10.99;63.48;98459.51;103379;1279;99381;-66
2022/04/07 03:30:34;;;;;;;0.40;0.30;;;;;;;10.96;63.48;98454.32;103240;1279;140238;-65
2022/04/07 03:33:02;;;;;;;0.40;0.40;;;;;;;10.93;63.62;98450.43;103345;1279;96873;-64
2022/04/07 03:35:30;;;;;;;0.50;0.40;;;;;;;10.95;63.57;98452.30;103350;1279;139637;-66
2022/04/07 03:37:57;;;;;;;0.40;0.30;;;;;;;10.93;63.58;98451.31;103406;1279;109170;-65
2022/04/07 03:40:26;;;;;;;0.40;0.40;;;;;;;10.86;63.74;98449.05;103294;1279;139323;-65
2022/04/07 03:42:53;;;;;;;0.40;0.30;;;;;;;10.80;63.51;98450.83;103384;1279;109853;-63
2022/04/07 03:45:21;;;;;;;0.40;0.30;;;;;;;10.83;63.63;98451.75;103336;1279;96782;-66
2022/04/07 03:47:49;;;;;;;0.40;0.30;;;;;;;10.84;63.19;98452.03;103307;1279;138853;-66
2022/04/07 03:50:17;;;;;;;0.40;0.30;;;;;;;10.69;63.36;98450.27;103403;1279;111056;-65
2022/04/07 03:52:45;;;;;;;0.40;0.40;;;;;;;10.57;63.87;98451.31;103339;1279;139564;-68
2022/04/07 03:55:13;;;;;;;0.40;0.40;;;;;;;10.57;63.95;98452.54;103472;1279;108775;-65
2022/04/07 03:57:41;;;;;;;0.40;0.30;;;;;;;10.63;63.75;98455.36;103525;1279;97088;-65
2022/04/07 04:00:09;;;;;;;0.40;0.30;;;;;;;10.65;63.72;98458.84;103376;1279;138946;-63
2022/04/07 04:02:40;;;;;;;0.40;0.40;;;;;;;10.61;63.59;98460.65;103295;1279;111208;-63
2022/04/07 04:05:08;;;;;;;0.40;0.40;;;;;;;10.60;63.53;98462.71;103313;1279;139908;-65
2022/04/07 04:07:37;;;;;;;0.40;0.30;;;;;;;10.60;63.70;98465.35;103896;1278;109042;-66
2022/04/07 04:10:05;;;;;;;0.40;0.40;;;;;;;10.53;63.73;98457.88;103461;1279;96586;-65
2022/04/07 04:12:33;;;;;;;0.40;0.30;;;;;;;10.57;63.56;98460.55;103357;1279;139129;-65
2022/04/07 04:15:01;;;;;;;0.40;0.40;;;;;;;10.54;63.66;98462.60;103397;1281;111256;-65
2022/04/07 04:17:30;;;;;;;0.40;0.40;;;;;;;10.54;63.46;98462.29;103401;1279;139781;-66
2022/04/07 04:19:59;;;;;;;0.40;0.40;;;;;;;10.46;63.57;98462.39;103503;1279;109066;-65
2022/04/07 04:22:26;;;;;;;0.40;0.40;;;;;;;10.42;63.60;98468.48;103731;1279;139734;-65
2022/04/07 04:24:54;;;;;;;0.40;0.40;;;;;;;10.34;63.69;98474.75;103623;1279;97953;-66
2022/04/07 04:27:22;;;;;;;0.50;0.40;;;;;;;10.27;64.16;98475.48;103540;1279;110738;-69
2022/04/07 04:29:50;;;;;;;0.40;0.30;;;;;;;10.23;64.40;98478.38;103473;1279;140453;-67
2022/04/07 04:32:18;;;;;;;0.50;0.40;;;;;;;10.23;64.61;98471.24;103555;1279;109302;-67
2022/04/07 04:34:45;;;;;;;0.40;0.40;;;;;;;10.22;64.50;98471.50;103474;1279;139314;-66
2022/04/07 04:37:13;;;;;;;0.50;0.40;;;;;;;10.17;64.62;98476.02;103492;1279;97422;-68
2022/04/07 04:39:41;;;;;;;0.50;0.40;;;;;;;10.17;64.92;98471.73;103551;1279;111116;-67
2022/04/07 04:42:09;;;;;;;0.40;0.30;;;;;;;10.14;64.93;98473.73;103354;1279;139694;-68
2022/04/07 04:44:37;;;;;;;0.40;0.40;;;;;;;10.11;64.97;98468.73;103502;1279;109224;-68
2022/04/07 04:47:05;;;;;;;0.40;0.40;;;;;;;10.06;65.18;98470.08;103365;1279;139276;-66
2022/04/07 04:49:33;;;;;;;0.40;0.40;;;;;;;10.04;65.40;98468.41;103478;1279;97618;-64
2022/04/07 04:52:01;;;;;;;0.40;0.40;;;;;;;10.13;65.51;98469.86;103427;1279;111051;-64
2022/04/07 04:54:29;;;;;;;0.40;0.30;;;;;;;10.27;65.05;98467.14;103346;1279;139415;-62
2022/04/07 04:56:57;;;;;;;0.40;0.30;;;;;;;10.23;65.05;98464.39;103352;1279;108837;-65
2022/04/07 04:59:24;;;;;;;0.40;0.30;;;;;;;10.17;65.18;98470.02;103315;1278;139229;-64
2022/04/07 05:01:52;;;;;;;0.40;0.30;;;;;;;10.14;65.22;98469.98;103405;1279;96952;-64
2022/04/07 05:04:20;;;;;;;0.40;0.30;;;;;;;10.15;65.44;98469.96;103399;1279;111667;-64
2022/04/07 05:06:48;;;;;;;0.40;0.30;;;;;;;10.20;65.33;98464.48;103395;1279;138354;-65
2022/04/07 05:09:16;;;;;;;0.40;0.40;;;;;;;10.21;65.32;98467.15;103477;1279;108987;-68
2022/04/07 05:11:44;;;;;;;0.40;0.30;;;;;;;10.23;65.29;98468.10;103261;1279;140145;-64
2022/04/07 05:14:12;;;;;;;0.40;0.40;;;;;;;10.24;65.46;98470.52;103174;1279;97781;-65
2022/04/07 05:16:40;;;;;;;0.40;0.30;;;;;;;10.33;65.26;98467.86;103130;1279;139430;-66
2022/04/07 05:19:08;;;;;;;0.40;0.40;;;;;;;10.36;65.12;98466.67;103381;1279;99662;-65
2022/04/07 05:21:36;;;;;;;0.40;0.40;;;;;;;10.40;64.99;98463.80;103489;1279;109038;-65
2022/04/07 05:24:04;;;;;;;0.40;0.40;;;;;;;10.47;64.96;98457.73;103351;1279;139707;-65
2022/04/07 05:26:32;;;;;;;0.50;0.40;;;;;;;10.54;64.59;98455.20;103516;1279;96517;-64
2022/04/07 05:29:00;;;;;;;0.40;0.40;;;;;;;10.53;64.78;98453.79;103321;1279;139214;-66
2022/04/07 05:31:27;;;;;;;0.50;0.40;;;;;;;10.60;64.62;98450.27;103410;1279;98348;-65
2022/04/07 05:33:55;;;;;;;0.40;0.40;;;;;;;10.69;64.55;98449.33;103470;1279;108873;-66
2022/04/07 05:36:23;;;;;;;0.40;0.40;;;;;;;10.79;64.05;98453.77;103234;1279;139904;-66
2022/04/07 05:38:51;;;;;;;0.40;0.30;;;;;;;10.85;64.01;98454.64;103461;1279;97756;-65
2022/04/07 05:41:19;;;;;;;0.40;0.40;;;;;;;10.93;63.72;98456.13;103352;1279;138638;-66
2022/04/07 05:43:47;;;;;;;0.40;0.40;;;;;;;10.96;63.47;98453.11;103439;1279;99330;-65
2022/04/07 05:46:15;;;;;;;0.40;0.30;;;;;;;11.02;63.51;98450.58;103621;1279;108788;-65
2022/04/07 05:48:43;;;;;;;0.40;0.30;;;;;;;11.13;63.35;98444.80;103523;1279;139100;-63
2022/04/07 05:51:11;;;;;;;0.40;0.40;;;;;;;11.25;62.78;98441.98;103173;1279;96547;-67
2022/04/07 05:53:39;;;;;;;0.40;0.30;;;;;;;11.31;62.29;98434.30;103263;1279;138756;-65
2022/04/07 05:56:07;;;;;;;0.40;0.30;;;;;;;11.35;62.19;98434.25;103118;1279;99862;-65
2022/04/07 05:58:35;;;;;;;0.40;0.30;;;;;;;11.45;62.11;98432.02;103300;1279;139579;-65
2022/04/07 06:01:03;;;;;;;0.40;0.30;;;;;;;11.59;61.62;98425.67;103382;1279;96579;-66
2022/04/07 06:03:31;;;;;;;0.40;0.30;;;;;;;11.72;61.24;98429.11;103387;1278;96481;-65
2022/04/07 06:05:59;;;;;;;0.40;0.30;;;;;;;11.82;60.69;98425.86;103384;1279;137924;-64
2022/04/07 06:08:34;;;;;;;0.40;0.40;;;;;;;11.84;60.27;98428.22;103440;1279;97832;-66
2022/04/07 06:11:02;;;;;;;0.40;0.30;;;;;;;11.86;59.94;98436.94;103387;1279;139738;-65
2022/04/07 06:13:29;;;;;;;0.40;0.40;;;;;;;11.84;59.35;98437.48;103472;1279;96884;-65
2022/04/07 06:15:57;;;;;;;0.40;0.30;;;;;;;11.81;59.13;98431.27;103503;1279;96556;-65
2022/04/07 06:18:27;;;;;;;0.40;0.30;;;;;;;11.84;59.10;98428.60;103377;1279;138427;-65
2022/04/07 06:20:55;;;;;;;0.40;0.30;;;;;;;11.90;59.24;98424.30;103549;1279;98342;-65
2022/04/07 06:23:24;;;;;;;0.40;0.30;;;;;;;11.98;59.01;98422.70;103275;1279;138398;-65
2022/04/07 06:25:52;;;;;;;0.40;0.30;;;;;;;12.08;58.56;98424.05;103501;1279;97781;-64
2022/04/07 06:28:22;;;;;;;0.40;0.40;;;;;;;12.14;58.49;98424.20;103444;1279;96591;-63
2022/04/07 06:30:54;;;;;;;0.40;0.30;;;;;;;12.21;58.74;98420.72;103262;1279;138249;-64
2022/04/07 06:33:22;;;;;;;0.40;0.30;;;;;;;12.34;58.43;98415.61;103545;1279;99456;-64
2022/04/07 06:35:51;;;;;;;0.40;0.30;;;;;;;12.40;57.43;98414.90;103310;1279;138761;-65
2022/04/07 06:38:19;;;;;;;0.40;0.30;;;;;;;12.40;57.39;98410.96;103556;1279;97088;-64
2022/04/07 06:40:46;;;;;;;0.40;0.30;;;;;;;12.43;56.92;98411.67;103422;1279;138871;-65
2022/04/07 06:43:14;;;;;;;0.40;0.30;;;;;;;12.46;56.74;98410.21;103474;1279;111099;-63
2022/04/07 06:45:42;;;;;;;0.40;0.30;;;;;;;12.47;56.52;98407.65;103527;1279;99409;-65
2022/04/07 06:48:11;;;;;;;0.40;0.30;;;;;;;12.52;56.72;98406.09;103371;1279;139093;-65
2022/04/07 06:50:39;;;;;;;0.40;0.30;;;;;;;12.57;56.48;98401.17;103422;1279;96651;-64
2022/04/07 06:53:07;;;;;;;0.40;0.30;;;;;;;12.57;56.37;98397.04;103358;1279;138653;-65
2022/04/07 06:55:35;;;;;;;0.40;0.30;;;;;;;12.57;56.55;98395.61;103481;1279;110371;-64
2022/04/07 06:58:06;;;;;;;0.40;0.30;;;;;;;12.62;56.49;98394.58;103437;1279;97508;-64
2022/04/07 07:00:40;;;;;;;0.40;0.30;;;;;;;12.70;56.30;98389.02;103279;1280;139342;-64
2022/04/07 07:03:08;;;;;;;0.40;0.30;;;;;;;12.85;56.24;98394.60;103460;1279;97128;-64
2022/04/07 07:05:36;;;;;;;0.40;0.30;;;;;;;12.98;55.58;98392.13;103391;1279;138349;-64
2022/04/07 07:08:14;;;;;;;0.40;0.30;;;;;;;13.11;54.98;98398.04;103468;1279;111370;-65
2022/04/07 07:10:46;;;;;;;0.40;0.30;;;;;;;13.21;53.89;98396.44;103386;1279;139035;-63
2022/04/07 07:13:20;;;;;;;0.40;0.30;;;;;;;13.31;53.51;98397.70;103428;1279;108851;-65
2022/04/07 07:15:54;;;;;;;0.40;0.30;;;;;;;13.43;52.46;98397.64;103834;1279;96562;-64
2022/04/07 07:18:22;;;;;;;0.40;0.30;;;;;;;13.50;52.81;98398.53;103424;1279;139232;-64
2022/04/07 07:20:50;;;;;;;0.40;0.20;;;;;;;13.69;53.09;98396.32;103478;1279;110652;-63
2022/04/07 07:23:18;;;;;;;0.40;0.20;;;;;;;13.77;52.21;98392.52;103355;1279;139598;-65
2022/04/07 07:25:47;;;;;;;0.40;0.20;;;;;;;13.77;51.29;98394.52;103524;1279;108885;-64
2022/04/07 07:28:15;;;;;;;0.40;0.20;;;;;;;13.80;52.22;98395.75;103451;1279;97004;-64
2022/04/07 07:30:43;;;;;;;0.40;0.30;;;;;;;13.86;51.63;98394.77;103451;1279;138749;-63
2022/04/07 07:33:11;;;;;;;0.40;0.20;;;;;;;13.92;51.63;98389.18;103503;1279;111269;-63
2022/04/07 07:35:39;;;;;;;0.40;0.20;;;;;;;13.97;51.34;98389.50;103385;1279;138476;-64
2022/04/07 07:38:07;;;;;;;0.40;0.20;;;;;;;13.97;50.48;98391.29;103488;1279;109453;-64
2022/04/07 07:40:35;;;;;;;0.40;0.20;;;;;;;13.96;50.10;98389.41;103361;1279;139059;-62
2022/04/07 07:43:03;;;;;;;0.40;0.30;;;;;;;13.97;50.49;98385.41;103493;1279;97883;-65
2022/04/07 07:45:33;;;;;;;0.40;0.20;;;;;;;14.01;49.81;98388.27;103466;1279;111110;-65
2022/04/07 07:48:28;;;;;;;0.40;0.20;;;;;;;13.94;49.23;98388.11;103388;1278;139052;-62
2022/04/07 07:50:57;;;;;;;0.40;0.20;;;;;;;13.96;49.54;98387.25;103409;1281;108939;-63
2022/04/07 07:53:25;;;;;;;0.40;0.20;;;;;;;14.04;49.66;98383.11;103430;1279;138495;-65
2022/04/07 07:55:54;;;;;;;0.40;0.20;;;;;;;14.12;49.73;98382.70;103439;1279;97043;-65
2022/04/07 07:58:25;;;;;;;0.40;0.20;;;;;;;14.23;49.56;98382.06;103649;1279;111133;-63
2022/04/07 08:00:53;;;;;;;0.40;0.20;;;;;;;14.31;49.12;98378.27;103951;1279;141771;-65
2022/04/07 08:03:22;;;;;;;0.40;0.20;;;;;;;14.36;48.87;98380.39;103454;1279;108365;-64
2022/04/07 08:05:50;;;;;;;0.40;0.20;;;;;;;14.46;48.89;98381.61;103325;1279;139019;-64
2022/04/07 08:08:18;;;;;;;0.40;0.20;;;;;;;14.54;47.89;98381.38;103432;1279;97642;-63
2022/04/07 08:10:45;;;;;;;0.40;0.20;;;;;;;14.55;48.05;98385.79;103351;1279;139524;-62
2022/04/07 08:13:13;;;;;;;0.40;0.20;;;;;;;14.57;48.20;98388.16;103500;1279;99348;-66
2022/04/07 08:15:41;;;;;;;0.40;0.20;;;;;;;14.60;47.26;98381.48;103398;1279;108042;-65
2022/04/07 08:18:09;;;;;;;0.40;0.20;;;;;;;14.60;47.39;98382.52;103383;1279;138495;-65
2022/04/07 08:20:37;;;;;;;0.40;0.20;;;;;;;14.60;47.42;98382.88;103412;1279;98259;-64
2022/04/07 08:23:05;;;;;;;0.40;0.20;;;;;;;14.69;47.16;98381.92;103413;1279;138513;-63
2022/04/07 08:25:33;;;;;;;0.40;0.20;;;;;;;14.75;46.19;98381.81;103472;1279;99486;-64
2022/04/07 08:28:02;;;;;;;0.40;0.20;;;;;;;14.73;46.01;98383.22;103478;1279;109241;-64
2022/04/07 08:30:34;;;;;;;0.40;0.20;;;;;;;14.78;46.35;98385.86;103365;1279;138578;-64
2022/04/07 08:33:03;;;;;;;0.40;0.20;;;;;;;14.88;46.21;98382.80;103497;1279;96513;-64
2022/04/07 08:35:31;;;;;;;0.40;0.20;;;;;;;15.02;46.41;98377.08;103336;1281;138377;-63
2022/04/07 08:37:59;;;;;;;0.40;0.20;;;;;;;15.18;45.89;98377.63;103461;1279;99495;-63
2022/04/07 08:40:27;;;;;;;0.40;0.20;;;;;;;15.27;45.27;98372.09;103378;1281;108781;-66
2022/04/07 08:42:55;;;;;;;0.40;0.20;;;;;;;15.35;45.18;98372.36;104064;1279;138831;-64
2022/04/07 08:45:25;;;;;;;0.40;0.20;;;;;;;15.46;45.34;98367.98;103389;1279;97988;-64
2022/04/07 08:47:55;;;;;;;0.40;0.20;;;;;;;15.59;45.42;98368.18;103327;1281;138212;-63
2022/04/07 08:50:23;;;;;;;0.40;0.20;;;;;;;15.76;45.22;98369.73;103460;1279;99493;-65
2022/04/07 08:52:52;;;;;;;0.40;0.20;;;;;;;15.85;45.20;98368.45;103307;1279;138453;-64
2022/04/07 08:55:20;;;;;;;0.40;0.20;;;;;;;15.92;44.63;98357.88;103494;1279;97165;-64
2022/04/07 08:57:48;;;;;;;0.40;0.20;;;;;;;15.87;44.56;98350.18;103438;1281;96591;-64
2022/04/07 09:00:16;;;;;;;0.40;0.20;;;;;;;15.90;44.24;98350.52;103415;1279;141110;-64
2022/04/07 09:02:44;;;;;;;0.40;0.20;;;;;;;15.98;44.32;98348.64;103465;1279;99465;-64
2022/04/07 09:05:12;;;;;;;0.40;0.20;;;;;;;16.00;43.85;98345.73;103278;1279;138645;-62
2022/04/07 09:07:40;;;;;;;0.40;0.20;;;;;;;16.10;44.20;98346.08;103350;1281;97247;-62
2022/04/07 09:10:08;;;;;;;0.40;0.20;;;;;;;16.24;43.85;98340.75;103457;1279;97079;-64
2022/04/07 09:12:38;;;;;;;0.40;0.20;;;;;;;16.47;43.31;98341.02;103384;1279;138316;-62
2022/04/07 09:15:07;;;;;;;0.40;0.30;;;;;;;16.71;42.80;98331.13;103504;1278;101239;-64
2022/04/07 09:17:49;;;;;;;0.40;0.30;;;;;;;17.57;42.10;98326.23;103340;1280;138911;-64
2022/04/07 09:20:17;;;;;;;0.40;0.20;;;;;;;19.58;38.97;98325.21;103436;1279;97472;-65
2022/04/07 09:22:56;;;;;;;0.40;0.20;;;;;;;20.84;35.33;98317.49;103344;1279;138636;-64
2022/04/07 09:25:25;;;;;;;0.40;0.10;;;;;;;21.65;34.18;98310.76;103451;1279;111362;-64
2022/04/07 09:27:57;;;;;;;0.40;0.10;;;;;;;22.89;32.75;98307.73;103464;1279;99620;-64
2022/04/07 09:30:26;;;;;;;0.40;0.10;;;;;;;23.27;30.92;98302.88;103276;1279;138359;-65
2022/04/07 09:32:54;;;;;;;0.40;0.10;;;;;;;23.66;31.73;98303.02;103379;1279;96701;-64
2022/04/07 09:35:22;;;;;;;0.40;0.10;;;;;;;23.97;30.37;98303.73;103346;1279;138794;-65
2022/04/07 09:37:49;;;;;;;0.40;0.10;;;;;;;24.03;29.33;98298.14;103437;1280;111112;-64
2022/04/07 09:40:18;;;;;;;0.40;0.10;;;;;;;24.08;29.63;98291.35;103477;1280;99414;-65
2022/04/07 09:42:57;;;;;;;0.40;0.10;;;;;;;24.43;29.89;98284.24;103358;1281;138920;-65
2022/04/07 09:45:25;;;;;;;0.40;0.10;;;;;;;24.53;29.31;98281.04;103582;1279;97214;-63
2022/04/07 09:47:55;;;;;;;0.40;0.10;;;;;;;24.61;28.03;98275.56;103424;1280;139008;-63
2022/04/07 09:50:24;;;;;;;0.40;0.10;;;;;;;24.79;27.99;98266.89;103399;1281;111056;-64
2022/04/07 09:52:59;;;;;;;0.40;0.00;;;;;;;25.27;27.54;98264.06;103303;1279;138747;-65
2022/04/07 09:55:30;;;;;;;0.40;0.00;;;;;;;24.89;27.83;98266.26;103403;1279;108805;-64
2022/04/07 09:58:00;;;;;;;0.40;0.00;;;;;;;24.84;28.04;98263.61;103376;1281;96651;-64
2022/04/07 10:00:28;;;;;;;0.40;0.00;;;;;;;24.74;27.34;98255.88;103181;1281;138309;-63
2022/04/07 10:02:57;;;;;;;0.40;0.00;;;;;;;24.55;27.33;98248.16;103427;1281;110155;-64
2022/04/07 10:05:25;;;;;;;0.40;0.00;;;;;;;24.28;27.35;98255.81;103430;1281;139422;-63
2022/04/07 10:07:53;;;;;;;0.40;0.10;;;;;;;24.04;27.76;98249.21;103475;1281;108680;-64
2022/04/07 10:10:22;;;;;;;0.40;0.00;;;;;;;24.47;27.38;98243.70;103423;1281;97075;-66
2022/04/07 10:12:51;;;;;;;0.40;0.00;;;;;;;24.58;27.64;98237.41;103382;1280;138232;-62
2022/04/07 10:15:19;;;;;;;0.40;0.00;;;;;;;24.72;27.61;98229.48;103550;1279;111029;-65
2022/04/07 10:17:47;;;;;;;0.40;0.00;;;;;;;24.55;27.87;98224.17;103308;1280;138606;-64
2022/04/07 10:20:17;;;;;;;0.40;0.10;;;;;;;25.01;28.02;98216.54;103468;1279;108784;-65
2022/04/07 10:22:48;;;;;;;0.40;0.00;;;;;;;25.72;26.77;98214.04;103425;1280;138698;-64
2022/04/07 10:25:19;;;;;;;0.40;0.10;;;;;;;25.53;26.46;98214.61;103491;1280;97907;-64
2022/04/07 10:27:50;;;;;;;0.40;0.00;;;;;;;25.61;26.42;98207.84;103283;1281;111093;-64
2022/04/07 10:30:18;;;;;;;0.40;0.00;;;;;;;25.91;25.95;98202.43;103964;1281;138547;-64
2022/04/07 10:32:52;;;;;;;0.40;0.00;;;;;;;25.57;25.97;98201.30;103475;1279;109018;-64
2022/04/07 10:35:37;;;;;;;0.40;0.00;;;;;;;25.34;26.29;98200.13;103516;1281;138538;-65
2022/04/07 10:38:06;;;;;;;0.40;0.00;;;;;;;25.02;26.78;98193.71;103511;1281;96605;-64
2022/04/07 10:40:39;;;;;;;0.40;0.00;;;;;;;24.64;27.27;98189.89;103415;1281;138825;-64
2022/04/07 10:43:14;;;;;;;0.40;0.00;;;;;;;24.18;28.37;98190.17;103610;1279;99647;-64
2022/04/07 10:45:50;;;;;;;0.40;0.00;;;;;;;24.83;27.92;98196.23;103459;1281;108832;-64
2022/04/07 10:48:19;;;;;;;0.40;0.00;;;;;;;25.24;26.89;98197.38;103280;1281;138645;-64
2022/04/07 10:50:49;;;;;;;0.40;0.00;;;;;;;25.38;26.62;98191.54;103436;1280;96580;-65
2022/04/07 10:53:33;;;;;;;0.40;0.00;;;;;;;24.75;27.19;98190.93;103526;1280;141652;-64
2022/04/07 10:56:05;;;;;;;0.40;0.00;;;;;;;23.32;29.00;98189.58;103501;1279;99509;-64
2022/04/07 10:58:54;;;;;;;0.40;0.10;;;;;;;22.59;30.34;98186.13;103479;1281;138772;-63
2022/04/07 11:01:31;;;;;;;0.40;0.10;;;;;;;21.72;31.54;98189.48;103693;1280;97285;-64
2022/04/07 11:07:26;;;;;;;0.40;0.10;;;;;;;20.41;34.23;98184.46;103383;1278;138487;-64
2022/04/07 11:09:57;;;;;;;0.40;0.10;;;;;;;20.06;34.71;98183.99;103414;1281;99052;-64
2022/04/07 11:12:32;;;;;;;0.40;0.10;;;;;;;19.86;35.04;98172.47;103325;1280;138836;-64
2022/04/07 11:15:00;;;;;;;0.40;0.10;;;;;;;19.70;35.43;98170.66;103603;1281;99427;-63
2022/04/07 11:17:47;;;;;;;0.40;0.10;;;;;;;19.45;35.57;98164.86;103355;1279;138847;-64
2022/04/07 11:20:25;;;;;;;0.40;0.10;;;;;;;19.10;36.68;98166.99;103482;1281;111285;-65
2022/04/07 11:23:07;;;;;;;0.40;0.10;;;;;;;18.81;37.21;98155.23;103283;1279;138969;-65
2022/04/07 11:25:37;;;;;;;0.40;0.10;;;;;;;18.54;37.42;98159.20;103511;1281;108848;-64
2022/04/07 11:28:14;;;;;;;0.40;0.10;;;;;;;18.39;37.84;98152.16;103773;1279;97124;-64
2022/04/07 11:30:50;;;;;;;0.40;0.10;;;;;;;18.30;38.25;98149.20;103480;1278;137232;-64
2022/04/07 11:33:18;;;;;;;0.40;0.10;;;;;;;18.30;38.73;98143.66;103428;1280;110148;-64